createdAt,value
2019-06-08T00:00:35.742Z,1004.99
2019-06-08T00:01:35.780Z,1004.95
2019-06-08T00:02:35.785Z,1004.97
2019-06-08T00:03:35.814Z,1004.95
2019-06-08T00:04:35.841Z,1004.96
2019-06-08T00:05:35.870Z,1005.00
2019-06-08T00:06:35.953Z,1005.00
2019-06-08T00:07:35.926Z,1004.99
2019-06-08T00:08:35.955Z,1004.99
2019-06-08T00:09:35.984Z,1004.99
2019-06-08T00:10:36.010Z,1005.03
2019-06-08T00:11:36.040Z,1004.99
2019-06-08T00:12:36.068Z,1005.00
2019-06-08T00:13:36.126Z,1005.02
2019-06-08T00:14:36.122Z,1005.06
2019-06-08T00:15:36.151Z,1005.03
2019-06-08T00:16:36.179Z,1005.04
2019-06-08T00:17:38.979Z,1005.06
2019-06-08T00:18:36.234Z,1005.05
2019-06-08T00:19:36.262Z,1005.06
2019-06-08T00:20:36.293Z,1005.11
2019-06-08T00:21:36.357Z,1005.10
2019-06-08T00:22:36.350Z,1005.12
2019-06-08T00:23:36.375Z,1005.10
2019-06-08T00:24:36.404Z,1005.12
2019-06-08T00:25:36.431Z,1005.13
2019-06-08T00:26:36.458Z,1005.10
2019-06-08T00:27:36.491Z,1005.10
2019-06-08T00:28:36.516Z,1005.14
2019-06-08T00:29:36.579Z,1005.13
2019-06-08T00:30:37.243Z,1005.12
2019-06-08T00:31:36.600Z,1005.12
2019-06-08T00:32:36.627Z,1005.12
2019-06-08T00:33:36.661Z,1005.14
2019-06-08T00:34:36.684Z,1005.16
2019-06-08T00:35:36.716Z,1005.14
2019-06-08T00:36:36.741Z,1005.16
2019-06-08T00:37:36.770Z,1005.18
2019-06-08T00:38:36.797Z,1005.18
2019-06-08T00:39:36.825Z,1005.16
2019-06-08T00:40:36.856Z,1005.18
2019-06-08T00:41:36.883Z,1005.17
2019-06-08T00:42:36.914Z,1005.18
2019-06-08T00:43:36.985Z,1005.18
2019-06-08T00:44:36.967Z,1005.14
2019-06-08T00:45:36.998Z,1005.15
2019-06-08T00:46:37.022Z,1005.15
2019-06-08T00:47:47.759Z,1005.16
2019-06-08T00:48:37.077Z,1005.16
2019-06-08T00:49:37.138Z,1005.17
2019-06-08T00:50:37.133Z,1005.20
2019-06-08T00:51:37.162Z,1005.18
2019-06-08T00:52:37.229Z,1005.21
2019-06-08T00:53:37.276Z,1005.23
2019-06-08T00:54:37.244Z,1005.22
2019-06-08T00:55:37.275Z,1005.19
2019-06-08T00:56:37.303Z,1005.19
2019-06-08T00:57:37.333Z,1005.20
2019-06-08T00:58:37.359Z,1005.21
2019-06-08T00:59:37.388Z,1005.25
2019-06-08T01:00:37.414Z,1005.25
2019-06-08T01:01:37.441Z,1005.20
2019-06-08T01:02:37.470Z,1005.25
2019-06-08T01:03:37.510Z,1005.23
2019-06-08T01:04:37.525Z,1005.24
2019-06-08T01:05:37.558Z,1005.17
2019-06-08T01:06:37.628Z,1005.18
2019-06-08T01:07:37.614Z,1005.20
2019-06-08T01:08:37.640Z,1005.17
2019-06-08T01:09:37.667Z,1005.18
2019-06-08T01:10:37.710Z,1005.19
2019-06-08T01:11:37.795Z,1005.17
2019-06-08T01:12:37.752Z,1005.17
2019-06-08T01:13:37.828Z,1005.15
2019-06-08T01:14:37.807Z,1005.12
2019-06-08T01:15:37.835Z,1005.10
2019-06-08T01:16:37.863Z,1005.14
2019-06-08T01:17:37.891Z,1005.13
2019-06-08T01:18:37.919Z,1005.08
2019-06-08T01:19:37.947Z,1005.07
2019-06-08T01:20:38.035Z,1005.09
2019-06-08T01:21:38.055Z,1005.10
2019-06-08T01:22:38.033Z,1005.05
2019-06-08T01:23:38.058Z,1005.07
2019-06-08T01:24:38.095Z,1005.11
2019-06-08T01:25:38.116Z,1005.12
2019-06-08T01:26:38.143Z,1005.14
2019-06-08T01:27:38.172Z,1005.13
2019-06-08T01:28:38.200Z,1005.09
2019-06-08T01:29:38.264Z,1005.04
2019-06-08T01:30:38.255Z,1005.05
2019-06-08T01:31:38.283Z,1005.04
2019-06-08T01:32:38.310Z,1005.00
2019-06-08T01:33:38.339Z,1004.99
2019-06-08T01:34:38.413Z,1004.96
2019-06-08T01:35:38.394Z,1004.98
2019-06-08T01:36:38.424Z,1004.93
2019-06-08T01:37:38.450Z,1004.93
2019-06-08T01:38:38.479Z,1004.93
2019-06-08T01:39:38.506Z,1004.91
2019-06-08T01:40:38.534Z,1004.86
2019-06-08T01:41:38.562Z,1004.84
2019-06-08T01:42:38.590Z,1004.84
2019-06-08T01:43:38.619Z,1004.84
2019-06-08T01:44:38.648Z,1004.83
2019-06-08T01:45:38.675Z,1004.83
2019-06-08T01:46:38.702Z,1004.81
2019-06-08T01:47:38.730Z,1004.84
2019-06-08T01:48:38.759Z,1004.80
2019-06-08T01:49:38.788Z,1004.81
2019-06-08T01:50:38.815Z,1004.81
2019-06-08T01:51:38.841Z,1004.76
2019-06-08T01:52:38.929Z,1004.80
2019-06-08T01:53:38.900Z,1004.78
2019-06-08T01:54:38.925Z,1004.78
2019-06-08T01:55:38.955Z,1004.76
2019-06-08T01:56:38.984Z,1004.78
2019-06-08T01:57:39.011Z,1004.78
2019-06-08T01:58:39.041Z,1004.76
2019-06-08T01:59:39.066Z,1004.75
2019-06-08T02:00:41.402Z,1004.74
2019-06-08T02:01:39.188Z,1004.79
2019-06-08T02:02:39.150Z,1004.76
2019-06-08T02:03:39.178Z,1004.81
2019-06-08T02:04:39.214Z,1004.81
2019-06-08T02:05:39.235Z,1004.80
2019-06-08T02:06:39.261Z,1004.77
2019-06-08T02:07:39.290Z,1004.76
2019-06-08T02:08:39.321Z,1004.80
2019-06-08T02:09:39.346Z,1004.78
2019-06-08T02:10:39.373Z,1004.74
2019-06-08T02:11:39.402Z,1004.76
2019-06-08T02:12:39.429Z,1004.73
2019-06-08T02:13:39.460Z,1004.74
2019-06-08T02:14:39.485Z,1004.73
2019-06-08T02:15:39.569Z,1004.73
2019-06-08T02:16:39.541Z,1004.70
2019-06-08T02:17:39.576Z,1004.72
2019-06-08T02:18:50.207Z,1004.70
2019-06-08T02:19:39.626Z,1004.73
2019-06-08T02:20:39.663Z,1004.77
2019-06-08T02:21:39.685Z,1004.70
2019-06-08T02:22:39.709Z,1004.75
2019-06-08T02:23:39.811Z,1004.73
2019-06-08T02:24:39.767Z,1004.72
2019-06-08T02:25:39.794Z,1004.74
2019-06-08T02:26:39.821Z,1004.70
2019-06-08T02:27:39.851Z,1004.71
2019-06-08T02:28:40.130Z,1004.72
2019-06-08T02:29:39.980Z,1004.70
2019-06-08T02:30:41.826Z,1004.73
2019-06-08T02:31:41.887Z,1004.73
2019-06-08T02:32:40.596Z,1004.70
2019-06-08T02:33:40.469Z,1004.72
2019-06-08T02:34:40.655Z,1004.71
2019-06-08T02:35:41.604Z,1004.72
2019-06-08T02:36:40.824Z,1004.72
2019-06-08T02:37:40.131Z,1004.73
2019-06-08T02:38:40.158Z,1004.71
2019-06-08T02:39:40.268Z,1004.70
2019-06-08T02:40:40.296Z,1004.73
2019-06-08T02:41:40.243Z,1004.71
2019-06-08T02:42:40.356Z,1004.73
2019-06-08T02:43:40.544Z,1004.71
2019-06-08T02:44:40.783Z,1004.70
2019-06-08T02:45:40.628Z,1004.70
2019-06-08T02:46:40.647Z,1004.71
2019-06-08T02:47:41.109Z,1004.71
2019-06-08T02:49:00.295Z,1004.70
2019-06-08T02:49:40.507Z,1004.70
2019-06-08T02:50:40.496Z,1004.67
2019-06-08T02:51:41.204Z,1004.67
2019-06-08T02:52:40.887Z,1004.67
2019-06-08T02:53:41.542Z,1004.68
2019-06-08T02:54:41.227Z,1004.67
2019-06-08T02:55:40.636Z,1004.64
2019-06-08T02:56:41.139Z,1004.67
2019-06-08T02:57:40.741Z,1004.63
2019-06-08T02:58:40.900Z,1004.62
2019-06-08T02:59:41.131Z,1004.61
2019-06-08T03:00:40.840Z,1004.60
2019-06-08T03:01:40.935Z,1004.59
2019-06-08T03:02:40.832Z,1004.58
2019-06-08T03:03:40.860Z,1004.58
2019-06-08T03:04:41.362Z,1004.61
2019-06-08T03:05:40.918Z,1004.63
2019-06-08T03:06:41.620Z,1004.63
2019-06-08T03:07:41.300Z,1004.67
2019-06-08T03:08:43.348Z,1004.66
2019-06-08T03:09:41.274Z,1004.64
2019-06-08T03:10:41.366Z,1004.69
2019-06-08T03:11:41.473Z,1004.66
2019-06-08T03:12:42.467Z,1004.68
2019-06-08T03:13:42.469Z,1004.68
2019-06-08T03:14:42.108Z,1004.67
2019-06-08T03:15:43.513Z,1004.65
2019-06-08T03:16:43.192Z,1004.63
2019-06-08T03:17:48.363Z,1004.63
2019-06-08T03:19:35.687Z,1004.63
2019-06-08T03:20:35.734Z,1004.67
2019-06-08T03:22:27.461Z,1004.62
2019-06-08T03:23:27.479Z,1004.66
2019-06-08T03:25:22.087Z,1004.65
2019-06-08T03:26:22.083Z,1004.66
2019-06-08T03:27:22.133Z,1004.62
2019-06-08T03:28:22.137Z,1004.63
2019-06-08T03:29:22.167Z,1004.63
2019-06-08T03:30:22.195Z,1004.65
2019-06-08T03:31:22.235Z,1004.61
2019-06-08T03:32:22.256Z,1004.64
2019-06-08T03:33:22.296Z,1004.63
2019-06-08T03:34:22.305Z,1004.61
2019-06-08T03:35:22.335Z,1004.63
2019-06-08T03:36:22.367Z,1004.59
2019-06-08T03:37:22.450Z,1004.58
2019-06-08T03:38:22.419Z,1004.59
2019-06-08T03:39:22.490Z,1004.56
2019-06-08T03:40:22.477Z,1004.55
2019-06-08T03:41:22.511Z,1004.51
2019-06-08T03:42:22.566Z,1004.52
2019-06-08T03:43:22.573Z,1004.54
2019-06-08T03:44:22.588Z,1004.53
2019-06-08T03:45:22.617Z,1004.54
2019-06-08T03:46:22.642Z,1004.54
2019-06-08T03:47:22.673Z,1004.58
2019-06-08T03:48:22.753Z,1004.56
2019-06-08T03:49:40.423Z,1004.58
2019-06-08T03:50:22.766Z,1004.55
2019-06-08T03:51:22.784Z,1004.54
2019-06-08T03:52:22.818Z,1004.53
2019-06-08T03:53:22.840Z,1004.50
2019-06-08T03:54:22.874Z,1004.53
2019-06-08T03:55:22.895Z,1004.53
2019-06-08T03:56:22.926Z,1004.52
2019-06-08T03:57:22.952Z,1004.54
2019-06-08T03:58:22.985Z,1004.54
2019-06-08T03:59:23.014Z,1004.51
2019-06-08T04:00:23.042Z,1004.51
2019-06-08T04:01:23.066Z,1004.53
2019-06-08T04:02:23.102Z,1004.51
2019-06-08T04:03:23.125Z,1004.50
2019-06-08T04:04:23.151Z,1004.49
2019-06-08T04:05:23.178Z,1004.49
2019-06-08T04:06:23.207Z,1004.48
2019-06-08T04:07:23.233Z,1004.48
2019-06-08T04:08:23.260Z,1004.47
2019-06-08T04:09:23.289Z,1004.43
2019-06-08T04:10:23.321Z,1004.46
2019-06-08T04:11:23.348Z,1004.43
2019-06-08T04:12:23.376Z,1004.44
2019-06-08T04:13:23.408Z,1004.43
2019-06-08T04:14:23.430Z,1004.40
2019-06-08T04:15:23.464Z,1004.40
2019-06-08T04:16:23.498Z,1004.42
2019-06-08T04:17:23.515Z,1004.42
2019-06-08T04:18:23.549Z,1004.41
2019-06-08T04:19:23.573Z,1004.41
2019-06-08T04:20:23.601Z,1004.41
2019-06-08T04:21:23.629Z,1004.42
2019-06-08T04:22:23.657Z,1004.44
2019-06-08T04:23:23.695Z,1004.49
2019-06-08T04:24:23.768Z,1004.48
2019-06-08T04:25:23.742Z,1004.45
2019-06-08T04:26:23.822Z,1004.54
2019-06-08T04:27:23.798Z,1004.46
2019-06-08T04:28:23.825Z,1004.49
2019-06-08T04:29:23.854Z,1004.56
2019-06-08T04:30:23.882Z,1004.52
2019-06-08T04:31:23.921Z,1004.46
2019-06-08T04:32:23.939Z,1004.47
2019-06-08T04:33:23.971Z,1004.45
2019-06-08T04:34:23.995Z,1004.48
2019-06-08T04:35:24.024Z,1004.50
2019-06-08T04:36:24.061Z,1004.54
2019-06-08T04:37:24.080Z,1004.54
2019-06-08T04:38:24.110Z,1004.56
2019-06-08T04:39:24.137Z,1004.56
2019-06-08T04:40:24.189Z,1004.52
2019-06-08T04:41:24.194Z,1004.54
2019-06-08T04:42:24.222Z,1004.58
2019-06-08T04:43:24.254Z,1004.55
2019-06-08T04:44:24.278Z,1004.52
2019-06-08T04:45:24.340Z,1004.53
2019-06-08T04:46:24.337Z,1004.56
2019-06-08T04:47:24.370Z,1004.50
2019-06-08T04:48:24.393Z,1004.51
2019-06-08T04:49:24.420Z,1004.49
2019-06-08T04:50:24.496Z,1004.48
2019-06-08T04:51:24.476Z,1004.52
2019-06-08T04:52:24.510Z,1004.51
2019-06-08T04:53:24.533Z,1004.49
2019-06-08T04:54:24.562Z,1004.50
2019-06-08T04:55:24.618Z,1004.51
2019-06-08T04:56:24.618Z,1004.51
2019-06-08T04:57:24.649Z,1004.53
2019-06-08T04:58:24.676Z,1004.51
2019-06-08T04:59:24.702Z,1004.56
2019-06-08T05:00:24.731Z,1004.62
2019-06-08T05:01:24.760Z,1004.61
2019-06-08T05:02:24.789Z,1004.67
2019-06-08T05:03:24.818Z,1004.66
2019-06-08T05:04:24.846Z,1004.68
2019-06-08T05:05:24.935Z,1004.63
2019-06-08T05:06:24.907Z,1004.62
2019-06-08T05:07:24.973Z,1004.55
2019-06-08T05:08:24.958Z,1004.54
2019-06-08T05:09:24.988Z,1004.54
2019-06-08T05:10:25.017Z,1004.55
2019-06-08T05:11:25.051Z,1004.53
2019-06-08T05:12:25.076Z,1004.57
2019-06-08T05:13:25.104Z,1004.57
2019-06-08T05:14:25.128Z,1004.54
2019-06-08T05:15:25.156Z,1004.55
2019-06-08T05:16:25.184Z,1004.56
2019-06-08T05:17:25.218Z,1004.53
2019-06-08T05:18:26.132Z,1004.53
2019-06-08T05:19:25.270Z,1004.56
2019-06-08T05:20:38.228Z,1004.57
2019-06-08T05:21:25.330Z,1004.59
2019-06-08T05:22:25.425Z,1004.55
2019-06-08T05:23:25.384Z,1004.56
2019-06-08T05:24:25.446Z,1004.58
2019-06-08T05:25:25.441Z,1004.56
2019-06-08T05:26:25.469Z,1004.55
2019-06-08T05:27:25.499Z,1004.56
2019-06-08T05:28:25.526Z,1004.55
2019-06-08T05:29:25.556Z,1004.59
2019-06-08T05:30:28.070Z,1004.63
2019-06-08T05:31:25.611Z,1004.66
2019-06-08T05:32:25.638Z,1004.60
2019-06-08T05:33:25.679Z,1004.62
2019-06-08T05:34:25.698Z,1004.61
2019-06-08T05:35:25.736Z,1004.65
2019-06-08T05:36:25.814Z,1004.64
2019-06-08T05:37:25.782Z,1004.63
2019-06-08T05:38:25.830Z,1004.61
2019-06-08T05:39:25.838Z,1004.63
2019-06-08T05:40:25.866Z,1004.62
2019-06-08T05:41:25.900Z,1004.63
2019-06-08T05:42:25.923Z,1004.61
2019-06-08T05:43:25.952Z,1004.62
2019-06-08T05:44:25.982Z,1004.61
2019-06-08T05:45:26.011Z,1004.58
2019-06-08T05:46:26.037Z,1004.64
2019-06-08T05:47:26.065Z,1004.62
2019-06-08T05:48:26.117Z,1004.66
2019-06-08T05:49:26.176Z,1004.64
2019-06-08T05:50:26.153Z,1004.62
2019-06-08T05:51:26.179Z,1004.63
2019-06-08T05:52:26.210Z,1004.60
2019-06-08T05:53:26.244Z,1004.60
2019-06-08T05:54:26.266Z,1004.59
2019-06-08T05:55:26.294Z,1004.55
2019-06-08T05:56:26.327Z,1004.55
2019-06-08T05:57:26.351Z,1004.54
2019-06-08T05:58:26.406Z,1004.55
2019-06-08T05:59:26.408Z,1004.53
2019-06-08T06:00:26.437Z,1004.51
2019-06-08T06:01:26.465Z,1004.53
2019-06-08T06:02:26.493Z,1004.54
2019-06-08T06:03:26.521Z,1004.56
2019-06-08T06:04:26.552Z,1004.59
2019-06-08T06:05:26.579Z,1004.56
2019-06-08T06:06:26.607Z,1004.57
2019-06-08T06:07:26.634Z,1004.56
2019-06-08T06:08:26.666Z,1004.56
2019-06-08T06:09:26.695Z,1004.58
2019-06-08T06:10:26.734Z,1004.55
2019-06-08T06:11:26.752Z,1004.60
2019-06-08T06:12:26.780Z,1004.57
2019-06-08T06:13:26.808Z,1004.60
2019-06-08T06:14:26.836Z,1004.59
2019-06-08T06:15:26.865Z,1004.64
2019-06-08T06:16:26.893Z,1004.62
2019-06-08T06:17:26.924Z,1004.63
2019-06-08T06:18:26.952Z,1004.62
2019-06-08T06:19:26.980Z,1004.64
2019-06-08T06:20:27.007Z,1004.64
2019-06-08T06:21:27.044Z,1004.66
2019-06-08T06:22:27.065Z,1004.69
2019-06-08T06:23:27.095Z,1004.68
2019-06-08T06:24:27.139Z,1004.68
2019-06-08T06:25:27.153Z,1004.70
2019-06-08T06:26:27.269Z,1004.71
2019-06-08T06:27:27.206Z,1004.69
2019-06-08T06:28:27.237Z,1004.72
2019-06-08T06:29:27.268Z,1004.70
2019-06-08T06:30:27.294Z,1004.70
2019-06-08T06:31:27.320Z,1004.64
2019-06-08T06:32:27.372Z,1004.68
2019-06-08T06:33:27.381Z,1004.67
2019-06-08T06:34:27.409Z,1004.65
2019-06-08T06:35:27.435Z,1004.66
2019-06-08T06:36:27.469Z,1004.66
2019-06-08T06:37:27.497Z,1004.65
2019-06-08T06:38:27.527Z,1004.63
2019-06-08T06:39:27.552Z,1004.65
2019-06-08T06:40:27.641Z,1004.65
2019-06-08T06:41:27.610Z,1004.66
2019-06-08T06:42:27.637Z,1004.69
2019-06-08T06:43:27.694Z,1004.68
2019-06-08T06:44:27.696Z,1004.70
2019-06-08T06:45:27.728Z,1004.69
2019-06-08T06:46:27.820Z,1004.69
2019-06-08T06:47:27.782Z,1004.71
2019-06-08T06:48:27.810Z,1004.68
2019-06-08T06:49:27.838Z,1004.64
2019-06-08T06:50:27.870Z,1004.69
2019-06-08T06:51:27.895Z,1004.70
2019-06-08T06:52:27.925Z,1004.72
2019-06-08T06:53:27.954Z,1004.70
2019-06-08T06:54:27.985Z,1004.68
2019-06-08T06:55:28.011Z,1004.71
2019-06-08T06:56:28.039Z,1004.69
2019-06-08T06:57:28.073Z,1004.67
2019-06-08T06:58:28.155Z,1004.65
2019-06-08T06:59:28.124Z,1004.68
2019-06-08T07:00:28.154Z,1004.69
2019-06-08T07:01:28.183Z,1004.70
2019-06-08T07:02:28.214Z,1004.72
2019-06-08T07:03:28.240Z,1004.72
2019-06-08T07:04:28.269Z,1004.71
2019-06-08T07:05:28.299Z,1004.70
2019-06-08T07:06:28.374Z,1004.72
2019-06-08T07:07:28.354Z,1004.74
2019-06-08T07:08:28.385Z,1004.69
2019-06-08T07:09:28.413Z,1004.71
2019-06-08T07:10:28.442Z,1004.72
2019-06-08T07:11:28.470Z,1004.74
2019-06-08T07:12:28.501Z,1004.74
2019-06-08T07:13:28.572Z,1004.74
2019-06-08T07:14:28.557Z,1004.72
2019-06-08T07:15:28.587Z,1004.73
2019-06-08T07:16:28.654Z,1004.71
2019-06-08T07:17:28.644Z,1004.70
2019-06-08T07:18:28.672Z,1004.73
2019-06-08T07:19:28.701Z,1004.68
2019-06-08T07:20:28.771Z,1004.67
2019-06-08T07:21:40.976Z,1004.68
2019-06-08T07:22:28.785Z,1004.69
2019-06-08T07:23:28.815Z,1004.67
2019-06-08T07:24:28.848Z,1004.68
2019-06-08T07:25:28.873Z,1004.66
2019-06-08T07:26:28.901Z,1004.67
2019-06-08T07:27:28.942Z,1004.67
2019-06-08T07:28:28.959Z,1004.68
2019-06-08T07:29:28.989Z,1004.69
2019-06-08T07:30:29.016Z,1004.65
2019-06-08T07:31:29.047Z,1004.67
2019-06-08T07:32:29.073Z,1004.68
2019-06-08T07:33:29.107Z,1004.71
2019-06-08T07:34:29.130Z,1004.68
2019-06-08T07:35:29.159Z,1004.70
2019-06-08T07:36:29.190Z,1004.68
2019-06-08T07:37:29.283Z,1004.65
2019-06-08T07:38:29.247Z,1004.66
2019-06-08T07:39:29.277Z,1004.64
2019-06-08T07:40:29.304Z,1004.61
2019-06-08T07:41:29.333Z,1004.64
2019-06-08T07:42:29.411Z,1004.60
2019-06-08T07:43:29.391Z,1004.63
2019-06-08T07:44:29.418Z,1004.64
2019-06-08T07:45:29.509Z,1004.61
2019-06-08T07:46:29.480Z,1004.65
2019-06-08T07:47:29.506Z,1004.65
2019-06-08T07:48:29.583Z,1004.63
2019-06-08T07:49:29.563Z,1004.65
2019-06-08T07:50:29.591Z,1004.62
2019-06-08T07:51:29.620Z,1004.63
2019-06-08T07:52:29.650Z,1004.60
2019-06-08T07:53:29.682Z,1004.61
2019-06-08T07:54:29.708Z,1004.57
2019-06-08T07:55:29.747Z,1004.60
2019-06-08T07:56:29.769Z,1004.59
2019-06-08T07:57:29.793Z,1004.63
2019-06-08T07:58:29.823Z,1004.59
2019-06-08T07:59:29.852Z,1004.62
2019-06-08T08:00:29.886Z,1004.57
2019-06-08T08:01:36.042Z,1004.59
2019-06-08T08:02:29.984Z,1004.59
2019-06-08T08:03:29.966Z,1004.60
2019-06-08T08:04:29.996Z,1004.61
2019-06-08T08:05:30.025Z,1004.62
2019-06-08T08:06:30.616Z,1004.66
2019-06-08T08:07:30.084Z,1004.64
2019-06-08T08:08:30.171Z,1004.64
2019-06-08T08:09:30.233Z,1004.63
2019-06-08T08:10:30.169Z,1004.62
2019-06-08T08:11:30.233Z,1004.56
2019-06-08T08:12:30.229Z,1004.57
2019-06-08T08:13:30.257Z,1004.56
2019-06-08T08:14:30.286Z,1004.59
2019-06-08T08:15:30.312Z,1004.54
2019-06-08T08:16:30.346Z,1004.56
2019-06-08T08:17:34.287Z,1004.55
2019-06-08T08:18:30.456Z,1004.55
2019-06-08T08:19:30.429Z,1004.57
2019-06-08T08:20:30.457Z,1004.50
2019-06-08T08:21:30.486Z,1004.54
2019-06-08T08:22:30.567Z,1004.49
2019-06-08T08:23:30.542Z,1004.51
2019-06-08T08:24:30.574Z,1004.51
2019-06-08T08:25:30.676Z,1004.51
2019-06-08T08:26:34.038Z,1004.50
2019-06-08T08:27:30.658Z,1004.51
2019-06-08T08:28:30.687Z,1004.50
2019-06-08T08:29:31.460Z,1004.50
2019-06-08T08:30:30.744Z,1004.50
2019-06-08T08:31:30.773Z,1004.53
2019-06-08T08:32:30.803Z,1004.50
2019-06-08T08:33:30.831Z,1004.54
2019-06-08T08:34:30.863Z,1004.53
2019-06-08T08:35:30.890Z,1004.53
2019-06-08T08:36:33.234Z,1004.51
2019-06-08T08:37:30.948Z,1004.48
2019-06-08T08:38:30.974Z,1004.48
2019-06-08T08:39:31.005Z,1004.49
2019-06-08T08:40:31.079Z,1004.48
2019-06-08T08:41:31.068Z,1004.46
2019-06-08T08:42:31.091Z,1004.46
2019-06-08T08:43:31.136Z,1004.46
2019-06-08T08:44:31.152Z,1004.45
2019-06-08T08:45:31.177Z,1004.42
2019-06-08T08:46:31.206Z,1004.43
2019-06-08T08:47:31.236Z,1004.40
2019-06-08T08:48:31.822Z,1004.45
2019-06-08T08:49:31.297Z,1004.38
2019-06-08T08:50:31.387Z,1004.44
2019-06-08T08:51:31.349Z,1004.41
2019-06-08T08:52:36.827Z,1004.42
2019-06-08T08:53:31.407Z,1004.42
2019-06-08T08:54:31.436Z,1004.42
2019-06-08T08:55:31.465Z,1004.45
2019-06-08T08:56:31.498Z,1004.39
2019-06-08T08:57:31.615Z,1004.43
2019-06-08T08:58:31.552Z,1004.39
2019-06-08T08:59:31.581Z,1004.41
2019-06-08T09:00:31.612Z,1004.41
2019-06-08T09:01:31.650Z,1004.44
2019-06-08T09:02:31.667Z,1004.41
2019-06-08T09:03:33.721Z,1004.39
2019-06-08T09:04:31.726Z,1004.34
2019-06-08T09:05:31.755Z,1004.36
2019-06-08T09:06:31.788Z,1004.35
2019-06-08T09:07:31.850Z,1004.40
2019-06-08T09:08:31.839Z,1004.38
2019-06-08T09:09:31.870Z,1004.39
2019-06-08T09:10:31.916Z,1004.39
2019-06-08T09:11:31.936Z,1004.36
2019-06-08T09:12:31.961Z,1004.39
2019-06-08T09:13:31.985Z,1004.36
2019-06-08T09:14:32.086Z,1004.39
2019-06-08T09:15:32.042Z,1004.36
2019-06-08T09:16:32.071Z,1004.34
2019-06-08T09:17:32.193Z,1004.35
2019-06-08T09:18:32.130Z,1004.37
2019-06-08T09:19:32.157Z,1004.34
2019-06-08T09:20:32.187Z,1004.39
2019-06-08T09:21:32.218Z,1004.35
2019-06-08T09:22:32.307Z,1004.35
2019-06-08T09:23:32.306Z,1004.38
2019-06-08T09:24:32.303Z,1004.35
2019-06-08T09:25:32.359Z,1004.35
2019-06-08T09:26:32.362Z,1004.36
2019-06-08T09:27:32.389Z,1004.27
2019-06-08T09:28:32.486Z,1004.31
2019-06-08T09:29:32.465Z,1004.32
2019-06-08T09:30:32.477Z,1004.31
2019-06-08T09:31:32.503Z,1004.27
2019-06-08T09:32:32.532Z,1004.22
2019-06-08T09:33:32.578Z,1004.26
2019-06-08T09:34:32.590Z,1004.19
2019-06-08T09:35:32.622Z,1004.15
2019-06-08T09:36:32.649Z,1004.16
2019-06-08T09:37:32.676Z,1004.20
2019-06-08T09:38:32.705Z,1004.21
2019-06-08T09:39:32.736Z,1004.19
2019-06-08T09:40:32.791Z,1004.21
2019-06-08T09:41:32.792Z,1004.13
2019-06-08T09:42:32.824Z,1004.17
2019-06-08T09:43:32.852Z,1004.12
2019-06-08T09:44:32.946Z,1004.15
2019-06-08T09:45:32.973Z,1004.11
2019-06-08T09:46:32.936Z,1004.15
2019-06-08T09:47:32.964Z,1004.15
2019-06-08T09:48:32.994Z,1004.16
2019-06-08T09:49:33.024Z,1004.13
2019-06-08T09:50:33.053Z,1004.13
2019-06-08T09:51:33.081Z,1004.11
2019-06-08T09:52:33.110Z,1004.11
2019-06-08T09:53:37.911Z,1004.12
2019-06-08T09:54:33.182Z,1004.10
2019-06-08T09:55:33.196Z,1004.08
2019-06-08T09:56:33.225Z,1004.06
2019-06-08T09:57:33.255Z,1004.06
2019-06-08T09:58:33.317Z,1004.00
2019-06-08T09:59:33.353Z,1003.98
2019-06-08T10:00:33.340Z,1003.96
2019-06-08T10:01:33.374Z,1003.98
2019-06-08T10:02:33.398Z,1004.01
2019-06-08T10:03:33.429Z,1003.97
2019-06-08T10:04:33.499Z,1003.94
2019-06-08T10:05:33.485Z,1003.96
2019-06-08T10:06:33.514Z,1003.93
2019-06-08T10:07:33.608Z,1003.93
2019-06-08T10:08:33.572Z,1003.96
2019-06-08T10:09:33.600Z,1003.93
2019-06-08T10:10:33.627Z,1003.95
2019-06-08T10:11:33.657Z,1003.89
2019-06-08T10:12:33.686Z,1003.89
2019-06-08T10:13:33.716Z,1003.86
2019-06-08T10:14:33.797Z,1003.85
2019-06-08T10:15:33.801Z,1003.84
2019-06-08T10:16:33.896Z,1003.82
2019-06-08T10:17:33.845Z,1003.86
2019-06-08T10:18:33.869Z,1003.79
2019-06-08T10:19:33.931Z,1003.81
2019-06-08T10:20:33.916Z,1003.86
2019-06-08T10:21:33.948Z,1003.78
2019-06-08T10:22:33.974Z,1003.82
2019-06-08T10:23:34.786Z,1003.81
2019-06-08T10:24:34.037Z,1003.78
2019-06-08T10:25:34.063Z,1003.79
2019-06-08T10:26:34.090Z,1003.82
2019-06-08T10:27:34.145Z,1003.81
2019-06-08T10:28:34.149Z,1003.74
2019-06-08T10:29:34.178Z,1003.76
2019-06-08T10:30:34.206Z,1003.81
2019-06-08T10:31:39.861Z,1003.78
2019-06-08T10:32:34.263Z,1003.76
2019-06-08T10:33:34.293Z,1003.73
2019-06-08T10:34:34.322Z,1003.73
2019-06-08T10:35:34.361Z,1003.74
2019-06-08T10:36:34.390Z,1003.78
2019-06-08T10:37:34.418Z,1003.78
2019-06-08T10:38:34.440Z,1003.73
2019-06-08T10:39:34.464Z,1003.76
2019-06-08T10:40:34.495Z,1003.73
2019-06-08T10:41:34.523Z,1003.74
2019-06-08T10:42:34.550Z,1003.72
2019-06-08T10:43:34.583Z,1003.68
2019-06-08T10:44:34.623Z,1003.71
2019-06-08T10:45:34.640Z,1003.75
2019-06-08T10:46:34.675Z,1003.73
2019-06-08T10:47:34.695Z,1003.71
2019-06-08T10:48:37.481Z,1003.74
2019-06-08T10:49:34.755Z,1003.72
2019-06-08T10:50:34.784Z,1003.71
2019-06-08T10:51:34.812Z,1003.63
2019-06-08T10:52:34.841Z,1003.62
2019-06-08T10:53:48.242Z,1003.62
2019-06-08T10:54:34.898Z,1003.56
2019-06-08T10:55:34.940Z,1003.52
2019-06-08T10:56:34.955Z,1003.56
2019-06-08T10:57:37.371Z,1003.55
2019-06-08T10:58:35.046Z,1003.61
2019-06-08T10:59:37.321Z,1003.58
2019-06-08T11:00:35.072Z,1003.50
2019-06-08T11:01:35.101Z,1003.55
2019-06-08T11:02:37.598Z,1003.50
2019-06-08T11:03:35.165Z,1003.52
2019-06-08T11:04:35.186Z,1003.48
2019-06-08T11:05:35.225Z,1003.47
2019-06-08T11:06:39.899Z,1003.50
2019-06-08T11:07:37.695Z,1003.47
2019-06-08T11:08:35.304Z,1003.46
2019-06-08T11:09:35.375Z,1003.50
2019-06-08T11:10:37.261Z,1003.44
2019-06-08T11:11:38.135Z,1003.43
2019-06-08T11:12:37.591Z,1003.39
2019-06-08T11:13:35.531Z,1003.45
2019-06-08T11:14:35.476Z,1003.41
2019-06-08T11:15:37.349Z,1003.36
2019-06-08T11:16:38.363Z,1003.41
2019-06-08T11:17:37.758Z,1003.34
2019-06-08T11:18:35.590Z,1003.35
2019-06-08T11:19:37.691Z,1003.34
2019-06-08T11:20:38.167Z,1003.30
2019-06-08T11:21:35.679Z,1003.32
2019-06-08T11:22:35.707Z,1003.32
2019-06-08T11:23:38.466Z,1003.27
2019-06-08T11:24:38.605Z,1003.30
2019-06-08T11:25:37.661Z,1003.28
2019-06-08T11:26:40.012Z,1003.30
2019-06-08T11:27:38.640Z,1003.32
2019-06-08T11:28:38.168Z,1003.26
2019-06-08T11:29:38.380Z,1003.25
2019-06-08T11:30:38.182Z,1003.26
2019-06-08T11:31:35.968Z,1003.18
2019-06-08T11:32:38.190Z,1003.19
2019-06-08T11:33:38.761Z,1003.13
2019-06-08T11:34:37.653Z,1003.12
2019-06-08T11:35:38.229Z,1003.12
2019-06-08T11:36:36.127Z,1003.07
2019-06-08T11:37:38.728Z,1003.04
2019-06-08T11:38:38.130Z,1003.02
2019-06-08T11:39:38.200Z,1003.00
2019-06-08T11:40:37.884Z,1003.02
2019-06-08T11:41:36.257Z,1002.98
2019-06-08T11:42:38.630Z,1003.03
2019-06-08T11:43:38.135Z,1003.01
2019-06-08T11:44:38.775Z,1003.03
2019-06-08T11:45:37.967Z,1003.07
2019-06-08T11:46:38.408Z,1003.11
2019-06-08T11:47:38.955Z,1003.06
2019-06-08T11:48:39.264Z,1003.13
2019-06-08T11:49:36.486Z,1003.14
2019-06-08T11:50:41.636Z,1003.14
2019-06-08T11:51:37.850Z,1003.16
2019-06-08T11:52:38.235Z,1003.14
2019-06-08T11:53:38.462Z,1003.16
2019-06-08T11:54:40.575Z,1003.16
2019-06-08T11:55:38.487Z,1003.10
2019-06-08T11:56:39.978Z,1003.17
2019-06-08T11:57:37.418Z,1003.16
2019-06-08T11:58:38.582Z,1003.18
2019-06-08T11:59:37.440Z,1003.17
2019-06-08T12:00:37.909Z,1003.19
2019-06-08T12:01:36.880Z,1003.19
2019-06-08T12:02:38.359Z,1003.25
2019-06-08T12:03:38.747Z,1003.22
2019-06-08T12:04:38.407Z,1003.23
2019-06-08T12:05:36.950Z,1003.25
2019-06-08T12:06:37.702Z,1003.24
2019-06-08T12:07:38.189Z,1003.23
2019-06-08T12:08:38.082Z,1003.22